Time;durP1;ratioP1;P1;durP2;ratioP2;P2;SDS_P1;SDS_P2;PMS_P1;PMS_P2;Temp;Humidity;BMP_temperature;BMP_pressure;BME280_temperature;BME280_humidity;BME280_pressure;Samples;Min_cycle;Max_cycle;Signal;HPM_P1;HPM_P2
2022/02/01 00:00:33;;;;;;;;;7.00;6.25;;;;;-147.17;77.82;50708.22;5014463;28;51631;-59
2022/02/01 00:03:01;;;;;;;;;5.50;4.75;;;;;-147.17;77.59;50655.06;5009490;28;51145;-59
2022/02/01 00:05:43;;;;;;;;;7.00;6.75;;;;;-147.17;78.08;50674.75;5014877;28;51082;-59
2022/02/01 00:13:13;;;;;;;;;9.25;7.00;;;;;-147.17;78.23;50670.81;5013015;28;51145;-59
2022/02/01 00:18:43;;;;;;;;;7.25;6.50;;;;;-147.17;78.18;50659.00;5010598;28;51152;-60
2022/02/01 00:35:32;;;;;;;;;6.75;6.00;;;;;-147.17;78.24;50647.19;5011549;28;51081;-60
2022/02/01 00:38:16;;;;;;;;;6.50;6.50;;;;;-147.17;78.60;50670.81;4995100;28;51221;-60
2022/02/01 00:40:43;;;;;;;;;8.00;7.75;;;;;-147.17;78.10;50639.31;5011055;28;51100;-59
2022/02/01 00:43:09;;;;;;;;;6.00;6.00;;;;;-147.17;78.33;50639.31;5013991;28;52294;-60
2022/02/01 00:45:35;;;;;;;;;11.00;9.50;;;;;-147.17;78.46;50694.44;4996629;28;51233;-60
2022/02/01 00:48:00;;;;;;;;;9.75;7.00;;;;;-147.17;78.63;50643.25;5013021;28;50817;-60
2022/02/01 00:50:26;;;;;;;;;8.25;5.50;;;;;-147.17;78.73;50651.13;5011589;28;51214;-59
2022/02/01 00:52:51;;;;;;;;;15.50;13.75;;;;;-147.17;78.70;50649.16;5014166;28;52921;-60
2022/02/01 00:55:17;;;;;;;;;7.00;7.00;;;;;-147.17;78.21;50664.91;5012795;28;51449;-59
2022/02/01 00:57:42;;;;;;;;;9.50;7.50;;;;;-147.17;78.20;50666.88;5012712;28;51200;-59
2022/02/01 01:00:11;;;;;;;;;8.50;7.75;;;;;-147.17;78.30;50655.06;5013757;28;51133;-59
2022/02/01 01:02:37;;;;;;;;;10.00;8.00;;;;;-147.17;78.47;50643.25;5012105;28;51948;-59
2022/02/01 01:05:03;;;;;;;;;9.50;8.50;;;;;-147.17;78.69;50639.31;4985120;28;51221;-59
2022/02/01 01:07:29;;;;;;;;;6.50;6.50;;;;;-147.17;78.96;50635.38;5012990;28;51258;-59
2022/02/01 01:09:56;;;;;;;;;7.50;6.00;;;;;-147.17;79.13;50643.25;5013813;28;51205;-59
2022/02/01 01:12:23;;;;;;;;;11.25;6.25;;;;;-147.17;79.23;50651.13;5012315;28;51114;-59
2022/02/01 01:18:21;;;;;;;;;7.00;7.00;;;;;-147.17;79.38;50635.38;5010587;28;51091;-59
2022/02/01 01:44:55;;;;;;;;;7.00;7.00;;;;;-147.17;80.48;50659.00;4997718;28;51078;-59
2022/02/01 01:55:38;;;;;;;;;7.00;6.75;;;;;-147.17;80.90;50631.44;5011387;28;51007;-61
2022/02/01 01:58:04;;;;;;;;;8.00;7.75;;;;;-147.17;80.75;50651.13;5008228;28;51144;-60
2022/02/01 02:02:55;;;;;;;;;10.75;7.50;;;;;-147.17;80.71;50635.38;4994347;28;51320;-60
2022/02/01 02:05:21;;;;;;;;;7.50;7.00;;;;;-147.17;81.02;50596.00;5010800;28;51871;-60
2022/02/01 02:07:48;;;;;;;;;7.00;7.00;;;;;-147.17;81.44;50627.50;4994378;28;51012;-60
2022/02/01 02:10:15;;;;;;;;;11.25;7.75;;;;;-147.17;81.57;50611.75;4994611;28;51151;-60
2022/02/01 02:13:00;;;;;;;;;8.00;6.75;;;;;-147.17;81.82;50613.72;5010535;28;50968;-60
2022/02/01 02:15:38;;;;;;;;;7.00;7.00;;;;;-147.17;81.86;50609.78;5012925;28;51694;-61
2022/02/01 02:18:04;;;;;;;;;9.75;7.25;;;;;-147.17;82.21;50664.91;5008943;28;51107;-60
2022/02/01 02:20:42;;;;;;;;;8.25;8.00;;;;;-147.17;82.14;50621.59;5011937;28;51074;-60
2022/02/01 02:23:09;;;;;;;;;8.25;7.25;;;;;-147.17;82.57;50645.22;5011729;28;51344;-60
2022/02/01 02:25:36;;;;;;;;;7.00;6.50;;;;;-147.17;83.29;50631.44;5006051;28;52839;-60
2022/02/01 02:28:01;;;;;;;;;7.00;7.00;;;;;-147.17;83.53;50639.31;5009283;28;51272;-60
2022/02/01 02:30:27;;;;;;;;;6.75;6.00;;;;;-147.17;83.59;50611.75;5004588;28;51034;-60
2022/02/01 02:32:52;;;;;;;;;7.75;6.25;;;;;-147.17;83.55;50645.22;4994092;28;51371;-60
2022/02/01 02:35:19;;;;;;;;;7.00;6.25;;;;;-147.17;83.83;50631.44;5010226;28;51302;-59
2022/02/01 02:37:44;;;;;;;;;8.00;7.00;;;;;-147.17;83.91;50625.53;5012255;28;51121;-60
2022/02/01 02:40:35;;;;;;;;;10.25;7.50;;;;;-147.17;83.95;50647.19;5010987;28;51157;-60
2022/02/01 02:45:44;;;;;;;;;5.50;5.50;;;;;-147.17;84.51;50631.44;5005314;28;51158;-60
2022/02/01 02:48:12;;;;;;;;;7.75;6.00;;;;;-147.17;84.71;50655.06;5010211;28;51095;-59
2022/02/01 02:50:37;;;;;;;;;5.50;4.50;;;;;-147.17;84.87;50627.50;5012207;28;50960;-60
2022/02/01 02:53:03;;;;;;;;;7.75;7.00;;;;;-147.17;84.84;50623.56;5011349;28;51272;-60
2022/02/01 02:55:31;;;;;;;;;7.75;7.00;;;;;-147.17;84.89;50599.94;5012368;28;51540;-60
2022/02/01 02:57:57;;;;;;;;;7.50;6.75;;;;;-147.17;85.38;50607.81;5010667;28;51275;-60
2022/02/01 03:00:22;;;;;;;;;6.25;5.50;;;;;-147.17;85.17;50603.88;5005235;28;51416;-60
2022/02/01 03:02:48;;;;;;;;;6.25;6.00;;;;;-147.17;85.22;50623.56;5014444;28;51194;-60
2022/02/01 03:05:13;;;;;;;;;6.50;6.00;;;;;-147.17;85.67;50615.69;4996214;28;52168;-60
2022/02/01 03:07:38;;;;;;;;;6.00;4.25;;;;;-147.17;85.85;50625.53;5014730;28;50951;-60
2022/02/01 03:10:04;;;;;;;;;5.25;5.00;;;;;-147.17;86.13;50623.56;5008976;28;51228;-60
2022/02/01 03:12:56;;;;;;;;;6.25;5.25;;;;;-147.17;86.63;50641.28;5004340;28;51328;-59
2022/02/01 03:15:45;;;;;;;;;6.00;5.50;;;;;-147.17;86.43;50607.81;5013053;28;50884;-61
2022/02/01 03:20:50;;;;;;;;;5.50;5.50;;;;;-147.17;87.62;50631.44;4998906;28;51177;-61
2022/02/01 03:23:15;;;;;;;;;4.00;3.50;;;;;-147.17;88.15;50629.47;5014691;28;51296;-60
2022/02/01 03:25:41;;;;;;;;;7.50;6.00;;;;;-147.17;88.30;50607.81;5014858;28;50998;-60
2022/02/01 03:28:06;;;;;;;;;6.50;4.25;;;;;-147.17;88.75;50584.19;5013358;28;51165;-60
2022/02/01 03:30:31;;;;;;;;;3.00;3.00;;;;;-147.17;88.81;50584.19;5008643;28;51578;-60
2022/02/01 03:32:57;;;;;;;;;6.75;5.50;;;;;-147.17;88.91;50605.84;5014137;28;51240;-60
2022/02/01 03:35:22;;;;;;;;;5.25;4.25;;;;;-147.17;89.19;50615.69;5013336;28;51205;-60
2022/02/01 03:37:47;;;;;;;;;6.00;4.00;;;;;-147.17;89.29;50592.06;5014037;28;51146;-60
2022/02/01 03:40:18;;;;;;;;;3.75;3.75;;;;;-147.17;89.75;50611.75;5013878;28;51221;-60
2022/02/01 03:42:44;;;;;;;;;4.50;4.25;;;;;-147.17;90.25;50592.06;5014042;28;51109;-60
2022/02/01 03:45:10;;;;;;;;;4.50;4.50;;;;;-147.17;90.39;50596.00;5014174;28;51852;-60
2022/02/01 03:47:36;;;;;;;;;4.00;3.00;;;;;-147.17;90.80;50615.69;5006659;28;51200;-59
2022/02/01 03:50:04;;;;;;;;;3.25;3.00;;;;;-147.17;90.93;50592.06;5013844;28;50987;-59
2022/02/01 03:52:29;;;;;;;;;7.00;6.00;;;;;-147.17;91.31;50594.03;5015287;28;51021;-59
2022/02/01 03:54:55;;;;;;;;;6.50;3.50;;;;;-147.17;91.40;50599.94;5014307;28;52710;-59
2022/02/01 03:57:20;;;;;;;;;6.50;4.50;;;;;-147.17;91.85;50605.84;4999841;28;51408;-61
2022/02/01 03:59:46;;;;;;;;;7.00;5.50;;;;;-147.17;92.16;50605.84;5011949;28;51246;-60
2022/02/01 04:02:13;;;;;;;;;5.00;3.25;;;;;-147.17;92.41;50641.28;5013394;28;51124;-60
2022/02/01 04:04:38;;;;;;;;;3.75;2.50;;;;;-147.17;93.02;50586.16;5012418;28;53832;-60
2022/02/01 04:07:06;;;;;;;;;5.00;5.00;;;;;-147.17;93.35;50592.06;5013708;28;51026;-61
2022/02/01 04:09:33;;;;;;;;;5.00;4.25;;;;;-147.17;93.52;50599.94;5013031;28;51141;-60
2022/02/01 04:12:00;;;;;;;;;7.00;6.00;;;;;-147.17;94.11;50586.16;5013658;28;51183;-60
2022/02/01 04:14:32;;;;;;;;;4.50;4.50;;;;;-147.17;94.63;50572.38;5011573;28;51867;-61
2022/02/01 04:17:00;;;;;;;;;6.50;5.50;;;;;-147.17;94.85;50556.63;5012856;28;51209;-60
2022/02/01 04:19:27;;;;;;;;;3.50;3.00;;;;;-147.17;95.44;50578.28;5009866;28;51120;-60
2022/02/01 04:22:00;;;;;;;;;4.00;3.25;;;;;-147.17;95.67;50560.56;5013454;28;51212;-60
2022/02/01 04:24:29;;;;;;;;;3.50;3.50;;;;;-147.17;96.39;50572.38;5013583;28;51745;-60
2022/02/01 04:26:55;;;;;;;;;4.00;3.25;;;;;-147.17;96.90;50570.41;5005934;28;51026;-61
2022/02/01 04:29:20;;;;;;;;;4.50;4.50;;;;;-147.17;97.24;50558.59;5013831;28;51171;-60
2022/02/01 04:31:46;;;;;;;;;6.50;4.00;;;;;-147.17;97.46;50570.41;5012721;28;51152;-60
2022/02/01 04:34:12;;;;;;;;;7.25;7.00;;;;;-147.17;98.27;50550.72;5003265;28;51259;-60
2022/02/01 04:36:38;;;;;;;;;3.50;3.25;;;;;-147.17;98.29;50566.47;5010513;28;51334;-60
2022/02/01 04:39:04;;;;;;;;;4.00;4.00;;;;;-147.17;99.02;50568.44;5014488;28;51171;-60
2022/02/01 04:41:30;;;;;;;;;4.00;4.00;;;;;-147.17;99.46;50548.75;4995574;28;51384;-60
2022/02/01 04:43:57;;;;;;;;;5.00;4.00;;;;;-147.17;100.00;50560.56;5014331;28;51159;-60
2022/02/01 04:46:23;;;;;;;;;7.50;4.00;;;;;-147.17;100.00;50554.66;5009667;28;54795;-59
2022/02/01 04:48:49;;;;;;;;;5.50;3.00;;;;;-147.17;100.00;50538.91;5011573;28;52422;-60
2022/02/01 04:51:18;;;;;;;;;1.50;1.00;;;;;-147.17;100.00;50552.69;5012854;28;51076;-60
2022/02/01 04:53:45;;;;;;;;;3.00;2.00;;;;;-147.17;100.00;50546.78;5013729;28;51070;-60
2022/02/01 04:56:12;;;;;;;;;2.50;2.00;;;;;-147.17;100.00;50525.13;5008485;28;51135;-60
2022/02/01 04:58:37;;;;;;;;;4.50;4.00;;;;;-147.17;100.00;50544.81;5005136;28;50957;-61
2022/02/01 05:01:03;;;;;;;;;6.00;6.00;;;;;-147.17;100.00;50552.69;5013042;28;50851;-59
2022/02/01 05:03:28;;;;;;;;;3.25;3.00;;;;;-147.17;100.00;50517.25;5012778;28;51909;-64
2022/02/01 05:05:55;;;;;;;;;3.75;2.75;;;;;-147.17;100.00;50533.00;4994747;28;51265;-59
2022/02/01 05:08:21;;;;;;;;;4.00;4.00;;;;;-147.17;100.00;50550.72;4993640;28;51057;-59
2022/02/01 05:10:46;;;;;;;;;5.50;4.00;;;;;-147.17;100.00;50521.19;5013188;28;50881;-60
2022/02/01 05:15:40;;;;;;;;;4.00;3.50;;;;;-147.17;100.00;50533.00;5013056;28;51151;-61
2022/02/01 05:18:05;;;;;;;;;4.50;4.00;;;;;-147.17;100.00;50525.13;5006795;28;51139;-60
2022/02/01 05:20:47;;;;;;;;;3.50;3.25;;;;;-147.17;100.00;50534.97;5011583;28;51128;-60
2022/02/01 05:23:12;;;;;;;;;6.00;3.50;;;;;-147.17;100.00;50505.44;5008137;28;52775;-60
2022/02/01 05:25:40;;;;;;;;;5.50;5.50;;;;;-147.17;100.00;50548.75;5010663;28;51151;-60
2022/02/01 05:28:05;;;;;;;;;7.00;7.00;;;;;-147.17;100.00;50487.72;5012231;28;51002;-60
2022/02/01 05:30:31;;;;;;;;;8.75;7.25;;;;;-147.17;100.00;50517.25;5011726;28;51240;-60
2022/02/01 05:32:56;;;;;;;;;5.00;3.25;;;;;-147.17;100.00;50515.28;4994797;28;51740;-60
2022/02/01 05:35:22;;;;;;;;;4.00;3.50;;;;;-147.17;100.00;50540.88;5011011;28;51098;-60
2022/02/01 05:37:47;;;;;;;;;6.00;5.00;;;;;-147.17;100.00;50509.38;4978340;28;51338;-62
2022/02/01 05:40:13;;;;;;;;;8.75;7.00;;;;;-147.17;100.00;50485.75;5011766;28;51299;-60
2022/02/01 05:42:47;;;;;;;;;3.50;3.50;;;;;-147.17;100.00;50505.44;5012576;28;50896;-60
2022/02/01 05:45:13;;;;;;;;;8.25;5.50;;;;;-147.17;100.00;50513.31;5013095;28;51111;-60
2022/02/01 05:47:39;;;;;;;;;4.50;3.00;;;;;-147.17;100.00;50497.56;5009239;28;51297;-60
2022/02/01 05:50:05;;;;;;;;;3.00;3.00;;;;;-147.17;100.00;50505.44;5011355;28;51293;-60
2022/02/01 05:52:31;;;;;;;;;5.50;5.00;;;;;-147.17;100.00;50489.69;5012165;28;51697;-60
2022/02/01 05:54:56;;;;;;;;;5.50;4.00;;;;;-147.17;100.00;50495.59;5012387;28;50937;-60
2022/02/01 05:57:24;;;;;;;;;4.00;4.00;;;;;-147.17;100.00;50481.81;5011230;28;51680;-61
2022/02/01 05:59:49;;;;;;;;;6.75;6.25;;;;;-147.17;100.00;50499.53;5009784;28;51395;-60
2022/02/01 06:02:16;;;;;;;;;2.75;2.25;;;;;-147.17;100.00;50505.44;5010856;28;51228;-60
2022/02/01 06:04:42;;;;;;;;;2.50;2.50;;;;;-147.17;100.00;50477.88;5011038;28;51117;-60
2022/02/01 06:07:07;;;;;;;;;4.50;3.75;;;;;-147.17;100.00;50481.81;5011515;28;51662;-61
2022/02/01 06:09:32;;;;;;;;;5.00;4.00;;;;;-147.17;100.00;50481.81;4994022;28;51333;-60
2022/02/01 06:11:58;;;;;;;;;3.00;3.00;;;;;-147.17;100.00;50466.06;4993941;28;51767;-59
2022/02/01 06:14:24;;;;;;;;;1.00;0.00;;;;;-147.17;100.00;50485.75;5011130;28;50975;-59
2022/02/01 06:16:49;;;;;;;;;6.50;5.00;;;;;-147.17;100.00;50503.47;4992180;28;51932;-60
2022/02/01 06:19:14;;;;;;;;;4.00;4.00;;;;;-147.17;100.00;50473.94;5012725;28;50974;-60
2022/02/01 06:21:40;;;;;;;;;5.50;4.00;;;;;-147.17;100.00;50462.13;5010475;28;51991;-60
2022/02/01 06:24:07;;;;;;;;;5.00;4.50;;;;;-147.17;100.00;50481.81;5011634;28;50991;-60
2022/02/01 06:26:33;;;;;;;;;6.00;3.00;;;;;-147.17;100.00;50475.91;5013021;28;51098;-61
2022/02/01 06:28:58;;;;;;;;;8.00;8.00;;;;;-147.17;100.00;50473.94;4997283;28;51448;-60
2022/02/01 06:31:24;;;;;;;;;5.00;3.25;;;;;-147.17;100.00;50432.59;5009816;28;51150;-61
2022/02/01 06:33:49;;;;;;;;;6.50;4.00;;;;;-147.17;100.00;50456.22;4994142;28;51075;-60
2022/02/01 06:36:14;;;;;;;;;3.00;2.75;;;;;-147.17;100.00;50458.19;5014590;28;51366;-61
2022/02/01 06:38:40;;;;;;;;;6.00;3.75;;;;;-147.17;100.00;50460.16;5003686;28;51258;-60
2022/02/01 06:41:05;;;;;;;;;4.00;4.00;;;;;-147.17;100.00;50426.69;5013022;28;51195;-59
2022/02/01 06:43:30;;;;;;;;;5.50;5.50;;;;;-147.17;100.00;50473.94;5015332;28;51150;-59
2022/02/01 06:45:58;;;;;;;;;4.00;3.75;;;;;-147.17;100.00;50450.31;4997475;28;51310;-60
2022/02/01 06:48:23;;;;;;;;;4.00;4.00;;;;;-147.17;100.00;50438.50;5015140;28;51375;-59
2022/02/01 06:50:49;;;;;;;;;8.50;6.00;;;;;-147.17;100.00;50470.00;5015360;28;51019;-59
2022/02/01 06:53:15;;;;;;;;;3.25;2.00;;;;;-147.17;100.00;50452.28;4980703;28;50977;-61
2022/02/01 06:58:11;;;;;;;;;3.25;3.25;;;;;-147.17;100.00;50456.22;5015544;28;51095;-60
2022/02/01 07:00:37;;;;;;;;;3.00;2.75;;;;;-147.17;100.00;50438.50;4997297;28;53398;-60
2022/02/01 07:03:03;;;;;;;;;4.00;4.00;;;;;-147.17;100.00;50436.53;5011799;28;51057;-60
2022/02/01 07:05:28;;;;;;;;;7.00;4.00;;;;;-147.17;100.00;50470.00;5013225;28;51578;-60
2022/02/01 07:07:54;;;;;;;;;1.75;1.50;;;;;-147.17;100.00;50442.44;5009024;28;51227;-60
2022/02/01 07:10:19;;;;;;;;;3.75;3.00;;;;;-147.17;100.00;50442.44;5015003;28;51910;-60
2022/02/01 07:12:45;;;;;;;;;5.50;3.00;;;;;-147.17;100.00;50466.06;5013579;28;51056;-60
2022/02/01 07:15:11;;;;;;;;;7.25;4.00;;;;;-147.17;100.00;50418.81;5003277;28;51104;-60
2022/02/01 07:17:49;;;;;;;;;4.00;4.00;;;;;-147.17;100.00;50418.81;5011571;28;51023;-60
2022/02/01 07:20:17;;;;;;;;;3.50;3.00;;;;;-147.17;100.00;50452.28;5014658;28;52139;-60
2022/02/01 07:22:45;;;;;;;;;3.50;3.50;;;;;-147.17;100.00;50418.81;5013013;28;51059;-60
2022/02/01 07:25:42;;;;;;;;;4.00;2.75;;;;;-147.17;100.00;50446.38;5004552;28;51358;-60
2022/02/01 07:28:00;;;;;;;;;3.25;3.00;;;;;-147.17;100.00;50446.38;5010045;28;51205;-60
2022/02/01 07:30:27;;;;;;;;;6.25;4.50;;;;;-147.17;100.00;50434.56;5014749;28;51100;-60
2022/02/01 07:32:54;;;;;;;;;3.00;3.00;;;;;-147.17;100.00;50393.22;5012905;28;51059;-60
2022/02/01 07:35:21;;;;;;;;;7.00;3.50;;;;;-147.17;100.00;50410.94;5010330;28;51051;-60
2022/02/01 07:37:48;;;;;;;;;8.00;7.00;;;;;-147.17;100.00;50405.03;5014146;28;50906;-60
2022/02/01 07:40:13;;;;;;;;;6.75;4.00;;;;;-147.17;100.00;50422.75;5013226;28;51940;-60
2022/02/01 07:42:39;;;;;;;;;7.00;4.00;;;;;-147.17;100.00;50434.56;5010381;28;51208;-60
2022/02/01 07:45:07;;;;;;;;;4.00;4.00;;;;;-147.17;100.00;50414.88;5014218;28;51200;-60
2022/02/01 07:47:32;;;;;;;;;4.50;4.00;;;;;-147.17;100.00;50399.13;5013054;28;51260;-61
2022/02/01 07:49:58;;;;;;;;;3.25;3.25;;;;;-147.17;100.00;50401.09;5013266;28;51083;-60
2022/02/01 07:52:23;;;;;;;;;5.00;4.50;;;;;-147.17;100.00;50397.16;5014239;28;50906;-60
2022/02/01 07:54:49;;;;;;;;;5.75;4.00;;;;;-147.17;100.00;50381.41;5013656;28;50900;-64
2022/02/01 07:57:14;;;;;;;;;3.25;3.00;;;;;-147.17;100.00;50393.22;5014977;28;51173;-60
2022/02/01 07:59:40;;;;;;;;;7.00;6.25;;;;;-147.17;100.00;50395.19;5013934;28;51713;-60
2022/02/01 08:02:17;;;;;;;;;9.75;9.25;;;;;-147.17;100.00;50422.75;5014296;28;50963;-60
2022/02/01 08:04:42;;;;;;;;;3.00;3.00;;;;;-147.17;100.00;50401.09;5004642;28;51186;-60
2022/02/01 08:07:07;;;;;;;;;5.00;5.00;;;;;-147.17;100.00;50408.97;5010517;28;51228;-60
2022/02/01 08:09:36;;;;;;;;;9.00;6.00;;;;;-147.17;100.00;50405.03;5013915;28;52209;-61
2022/02/01 08:12:09;;;;;;;;;7.00;6.00;;;;;-147.17;100.00;50383.38;4996106;28;51102;-61
2022/02/01 08:15:55;;;;;;;;;9.25;8.25;;;;;-147.17;100.00;50367.63;4990332;28;51166;-59
2022/02/01 08:17:29;;;;;;;;;5.00;3.50;;;;;-147.17;100.00;50359.75;5006344;28;51262;-60
2022/02/01 08:20:17;;;;;;;;;2.00;2.00;;;;;-147.17;100.00;50367.63;4996848;28;52363;-60
2022/02/01 08:25:12;;;;;;;;;6.00;6.00;;;;;-147.17;100.00;50397.16;5013786;28;51016;-60
2022/02/01 08:27:39;;;;;;;;;5.75;4.00;;;;;-147.17;100.00;50359.75;5009870;28;50986;-59
2022/02/01 08:30:06;;;;;;;;;6.25;6.25;;;;;-147.17;100.00;50369.59;5006617;28;51170;-60
2022/02/01 08:32:31;;;;;;;;;7.00;6.25;;;;;-147.17;100.00;50359.75;5011503;28;51213;-59
2022/02/01 08:34:57;;;;;;;;;5.50;5.50;;;;;-147.17;100.00;50363.69;5012206;28;52856;-60
2022/02/01 08:37:22;;;;;;;;;4.25;4.25;;;;;-147.17;100.00;50363.69;5010846;28;51214;-59
2022/02/01 08:39:48;;;;;;;;;19.00;18.75;;;;;-147.17;100.00;50359.75;5006556;28;52620;-59
2022/02/01 08:42:14;;;;;;;;;7.00;5.50;;;;;-147.17;100.00;50361.72;5008248;28;51133;-60
2022/02/01 08:44:40;;;;;;;;;5.50;5.50;;;;;-147.17;100.00;50367.63;4991793;28;52670;-60
2022/02/01 08:47:05;;;;;;;;;3.75;3.00;;;;;-147.17;100.00;50379.44;5010907;28;51205;-61
2022/02/01 08:49:31;;;;;;;;;5.50;3.75;;;;;-147.17;100.00;50379.44;5013495;28;51917;-59
2022/02/01 08:52:01;;;;;;;;;6.50;6.00;;;;;-147.17;100.00;50355.81;4993491;28;51261;-60
2022/02/01 08:54:29;;;;;;;;;9.50;7.50;;;;;-147.17;100.00;50351.88;5012424;28;51212;-60
2022/02/01 08:59:40;;;;;;;;;4.50;4.50;;;;;-147.17;100.00;50391.25;5012097;28;51109;-62
2022/02/01 09:02:07;;;;;;;;;12.00;9.00;;;;;-147.17;100.00;50347.94;5002756;28;51103;-61
2022/02/01 09:04:33;;;;;;;;;8.25;7.00;;;;;-147.17;100.00;50375.50;4994383;28;51208;-61
2022/02/01 09:07:00;;;;;;;;;4.00;3.00;;;;;-147.17;100.00;50359.75;5012390;28;51197;-61
2022/02/01 09:09:27;;;;;;;;;7.00;6.00;;;;;-147.17;100.00;50355.81;5013042;28;52850;-61
2022/02/01 09:11:53;;;;;;;;;7.25;7.00;;;;;-147.17;100.00;50369.59;5013836;28;51099;-61
2022/02/01 09:14:19;;;;;;;;;22.00;21.50;;;;;-147.17;100.00;50385.34;5013146;28;50884;-62
2022/02/01 09:16:44;;;;;;;;;3.50;3.50;;;;;-147.17;100.00;50369.59;5012290;28;51214;-62
2022/02/01 09:19:10;;;;;;;;;5.50;5.50;;;;;-147.17;100.00;50375.50;5011906;28;52765;-62
2022/02/01 09:21:35;;;;;;;;;7.00;7.00;;;;;-147.17;100.00;50359.75;4994437;28;50993;-61
2022/02/01 09:24:01;;;;;;;;;3.25;3.00;;;;;-147.17;100.00;50367.63;5007989;28;51132;-61
2022/02/01 09:26:26;;;;;;;;;8.00;6.00;;;;;-147.17;100.00;50353.84;5007458;28;51110;-60
2022/02/01 09:28:52;;;;;;;;;6.25;5.25;;;;;-147.17;100.00;50367.63;5013573;28;51722;-60
2022/02/01 09:31:17;;;;;;;;;6.00;4.00;;;;;-147.17;100.00;50355.81;5013424;28;50936;-60
2022/02/01 09:33:43;;;;;;;;;4.50;4.50;;;;;-147.17;100.00;50357.78;4994996;28;51102;-60
2022/02/01 09:36:09;;;;;;;;;5.50;3.75;;;;;-147.17;100.00;50361.72;4995672;28;51007;-62
2022/02/01 09:38:35;;;;;;;;;7.50;6.25;;;;;-147.17;100.00;50367.63;5009746;28;51764;-61
2022/02/01 09:41:02;;;;;;;;;7.75;6.50;;;;;-147.17;100.00;50344.00;5012034;28;51065;-64
2022/02/01 09:43:28;;;;;;;;;8.00;6.00;;;;;-147.17;100.00;50367.63;5012929;28;51059;-61
2022/02/01 09:45:55;;;;;;;;;7.00;6.25;;;;;-147.17;100.00;50332.19;4994862;28;51409;-62
2022/02/01 09:48:21;;;;;;;;;6.50;6.00;;;;;-147.17;100.00;50365.66;5012245;28;51217;-61
2022/02/01 09:50:47;;;;;;;;;6.75;6.25;;;;;-147.17;100.00;50351.88;5010561;28;51162;-70
2022/02/01 09:53:13;;;;;;;;;3.75;3.75;;;;;-147.17;100.00;50379.44;5006441;28;51121;-71
2022/02/01 09:55:38;;;;;;;;;7.50;7.00;;;;;-147.17;100.00;50367.63;5008014;28;51306;-72
2022/02/01 09:58:04;;;;;;;;;4.75;4.75;;;;;-147.17;100.00;50363.69;5010365;28;51389;-72
2022/02/01 10:00:34;;;;;;;;;13.25;7.75;;;;;-147.17;100.00;50361.72;5010775;28;51068;-71
2022/02/01 10:03:00;;;;;;;;;7.25;6.75;;;;;-147.17;100.00;50379.44;5011887;28;51475;-72
2022/02/01 10:05:25;;;;;;;;;11.75;11.00;;;;;-147.17;100.00;50391.25;5011466;28;51183;-72
2022/02/01 10:07:58;;;;;;;;;8.50;6.75;;;;;-147.17;100.00;50355.81;5012808;28;51577;-72
2022/02/01 10:10:26;;;;;;;;;6.00;6.00;;;;;-147.17;100.00;50375.50;5012282;28;51018;-71
2022/02/01 10:13:02;;;;;;;;;6.50;6.00;;;;;-147.17;100.00;50391.25;5013025;28;50953;-72
2022/02/01 10:15:28;;;;;;;;;9.50;7.00;;;;;-147.17;100.00;50375.50;5012954;28;51319;-71
2022/02/01 10:18:02;;;;;;;;;8.50;8.50;;;;;-147.17;100.00;50369.59;4994159;28;52510;-72
2022/02/01 10:20:39;;;;;;;;;7.75;6.75;;;;;-147.17;100.00;50365.66;5012876;28;51200;-72
2022/02/01 10:23:18;;;;;;;;;6.50;6.50;;;;;-147.17;100.00;50365.66;5012649;28;51063;-74
2022/02/01 10:25:57;;;;;;;;;6.00;6.00;;;;;-147.17;100.00;50381.41;5012767;28;51324;-71
2022/02/01 10:28:23;;;;;;;;;7.00;7.00;;;;;-147.17;100.00;50363.69;5012332;28;51724;-72
2022/02/01 10:30:49;;;;;;;;;8.00;7.00;;;;;-147.17;100.00;50420.78;5012417;28;50998;-72
2022/02/01 10:34:25;;;;;;;;;4.50;4.00;;;;;-147.17;100.00;50359.75;5010655;28;51105;-72
2022/02/01 10:36:18;;;;;;;;;9.75;8.25;;;;;-147.17;100.00;50338.09;4993235;28;51228;-72
2022/02/01 10:38:44;;;;;;;;;5.00;4.25;;;;;-147.17;100.00;50393.22;5012224;28;51056;-72
2022/02/01 10:41:14;;;;;;;;;5.25;5.00;;;;;-147.17;100.00;50395.19;5012585;28;50957;-71
2022/02/01 10:43:40;;;;;;;;;4.50;4.00;;;;;-147.17;100.00;50367.63;4994480;28;51159;-71
2022/02/01 10:46:16;;;;;;;;;6.00;5.00;;;;;-147.17;100.00;50387.31;5012594;28;51380;-71
2022/02/01 10:48:46;;;;;;;;;9.25;6.50;;;;;-147.17;100.00;50373.53;4993642;28;53957;-70
2022/02/01 10:51:21;;;;;;;;;4.00;4.00;;;;;-147.17;100.00;50379.44;5012214;28;51134;-71
2022/02/01 10:53:47;;;;;;;;;6.25;5.25;;;;;-147.17;100.00;50355.81;4994310;28;50996;-71
2022/02/01 10:56:16;;;;;;;;;6.25;5.25;;;;;-147.17;100.00;50369.59;4994325;28;50933;-72
2022/02/01 10:58:43;;;;;;;;;5.00;5.00;;;;;-147.17;100.00;50369.59;4993962;28;52047;-71
2022/02/01 11:01:10;;;;;;;;;5.00;5.00;;;;;-147.17;100.00;50387.31;5011620;28;51256;-70
2022/02/01 11:03:42;;;;;;;;;6.25;4.00;;;;;-147.17;100.00;50387.31;5011689;28;51066;-71
2022/02/01 11:06:09;;;;;;;;;7.00;5.50;;;;;-147.17;100.00;50387.31;4994263;28;51031;-72
2022/02/01 11:08:39;;;;;;;;;4.50;4.00;;;;;-147.17;100.00;50347.94;4994074;28;51845;-72
2022/02/01 11:11:05;;;;;;;;;5.00;5.00;;;;;-147.17;100.00;50387.31;5011962;28;51023;-72
2022/02/01 11:13:46;;;;;;;;;9.00;8.00;;;;;-147.17;100.00;50383.38;4993949;28;50994;-72
2022/02/01 11:16:17;;;;;;;;;5.25;4.00;;;;;-147.17;100.00;50405.03;5011699;28;51236;-71
2022/02/01 11:18:54;;;;;;;;;4.50;4.00;;;;;-147.17;100.00;50393.22;5010854;28;52253;-70
2022/02/01 11:21:20;;;;;;;;;8.50;7.75;;;;;-147.17;100.00;50351.88;5012720;28;51080;-70
2022/02/01 11:23:55;;;;;;;;;5.50;5.00;;;;;-147.17;100.00;50344.00;5014629;28;51185;-71
2022/02/01 11:26:31;;;;;;;;;4.25;4.25;;;;;-147.17;100.00;50369.59;5015331;28;51007;-71
2022/02/01 11:31:47;;;;;;;;;2.00;2.00;;;;;-147.17;100.00;50369.59;5014758;28;51305;-71
2022/02/01 11:34:18;;;;;;;;;5.00;4.00;;;;;-147.17;100.00;50407.00;4997069;28;50915;-71
2022/02/01 11:36:44;;;;;;;;;5.33;5.00;;;;;-147.17;100.00;50349.91;4996823;28;51053;-71
2022/02/01 11:39:12;;;;;;;;;7.00;4.75;;;;;-147.17;100.00;50375.50;4996711;28;53265;-70
2022/02/01 11:41:41;;;;;;;;;5.00;5.00;;;;;-147.17;100.00;50377.47;4996806;28;51118;-72
2022/02/01 11:44:29;;;;;;;;;3.75;3.75;;;;;-147.17;100.00;50355.81;4997565;28;51082;-71
2022/02/01 11:47:07;;;;;;;;;8.25;7.75;;;;;-147.17;100.00;50383.38;4997188;28;51272;-71
2022/02/01 11:49:37;;;;;;;;;6.67;5.00;;;;;-147.17;100.00;50381.41;5014176;28;51505;-71
2022/02/01 11:52:13;;;;;;;;;2.67;1.00;;;;;-147.17;100.00;50383.38;5014633;28;51183;-71
2022/02/01 11:54:42;;;;;;;;;6.67;5.00;;;;;-147.17;100.00;50391.25;5027453;28;51089;-71
2022/02/01 11:57:13;;;;;;;;;8.33;8.00;;;;;-147.17;100.00;50383.38;4997463;28;51102;-71
2022/02/01 11:59:57;;;;;;;;;13.50;12.25;;;;;-147.17;100.00;50367.63;5013841;28;51057;-70
2022/02/01 12:02:27;;;;;;;;;8.00;6.33;;;;;-147.17;100.00;50357.78;5014000;28;51181;-71
2022/02/01 12:04:52;;;;;;;;;5.00;5.00;;;;;-147.17;100.00;50365.66;5014574;28;50875;-72
2022/02/01 12:07:23;;;;;;;;;8.33;8.33;;;;;-147.17;100.00;50385.34;5014314;28;51037;-71
2022/02/01 12:09:49;;;;;;;;;4.00;4.00;;;;;-147.17;100.00;50387.31;5013984;28;51919;-70
2022/02/01 12:12:15;;;;;;;;;8.00;7.75;;;;;-147.17;100.00;50375.50;5014189;28;51002;-71
2022/02/01 12:14:40;;;;;;;;;60.50;49.00;;;;;-147.17;100.00;50389.28;5014335;28;51154;-72
2022/02/01 12:17:06;;;;;;;;;5.00;3.00;;;;;-147.17;100.00;50405.03;5014338;28;50908;-71
2022/02/01 12:19:46;;;;;;;;;6.00;6.00;;;;;-147.17;100.00;50381.41;5014102;28;51982;-71
2022/02/01 12:22:28;;;;;;;;;8.00;8.00;;;;;-147.17;100.00;50375.50;5014110;28;51022;-71
2022/02/01 12:25:05;;;;;;;;;8.33;7.33;;;;;-147.17;100.00;50387.31;5014131;28;51002;-72
2022/02/01 12:27:39;;;;;;;;;5.67;5.33;;;;;-147.17;100.00;50355.81;5013908;28;51379;-72
2022/02/01 12:30:08;;;;;;;;;5.00;4.00;;;;;-147.17;100.00;50361.72;5013835;28;51134;-71
2022/02/01 12:32:34;;;;;;;;;6.00;6.00;;;;;-147.17;100.00;50371.56;4995273;28;51170;-71
2022/02/01 12:34:59;;;;;;;;;4.00;3.00;;;;;-147.17;100.00;50371.56;5013901;28;51114;-71